Aviation Digital Data Service (ADDS)

Output produced by METARs form (1814 UTC 24 June 2019)
found at http://www.aviationweather.gov/metar/data/
 
METAR text: ORBI 241800Z 28006KT CAVOK 37/09 Q1003 NOSIG
Conditions at: ORBI (BAGHDAD INTL , IQ) observed 1800 UTC 24 June 2019
Temperature: 37.0°C (99°F)
Dewpoint: 9.0°C (48°F) [RH = 18%]
Pressure (altimeter): 29.62 inches Hg (1003.0 mb)
Winds: from the W (280 degrees) at 7 MPH (6 knots; 3.1 m/s)
Visibility: 6 or more miles (10+ km)
Ceiling: ceiling and visibility are OK
Clouds: unknown
Weather: no significant weather observed at this time

METAR text: ORBI 241700Z 29008KT CAVOK 38/09 Q1003 NOSIG
Conditions at: ORBI (BAGHDAD INTL , IQ) observed 1700 UTC 24 June 2019
Temperature: 38.0°C (100°F)
Dewpoint: 9.0°C (48°F) [RH = 17%]
Pressure (altimeter): 29.62 inches Hg (1003.0 mb)
Winds: from the WNW (290 degrees) at 9 MPH (8 knots; 4.1 m/s)
Visibility: 6 or more miles (10+ km)
Ceiling: ceiling and visibility are OK
Clouds: unknown
Weather: no significant weather observed at this time

METAR text: ORBI 241600Z 29009KT CAVOK 42/09 Q1003 NOSIG
Conditions at: ORBI (BAGHDAD INTL , IQ) observed 1600 UTC 24 June 2019
Temperature: 42.0°C (108°F)
Dewpoint: 9.0°C (48°F) [RH = 14%]
Pressure (altimeter): 29.62 inches Hg (1003.0 mb)
Winds: from the WNW (290 degrees) at 10 MPH (9 knots; 4.6 m/s)
Visibility: 6 or more miles (10+ km)
Ceiling: ceiling and visibility are OK
Clouds: unknown
Weather: no significant weather observed at this time

METAR text: ORBI 241500Z 30015KT CAVOK 44/09 Q1002 NOSIG
Conditions at: ORBI (BAGHDAD INTL , IQ) observed 1500 UTC 24 June 2019
Temperature: 44.0°C (111°F)
Dewpoint: 9.0°C (48°F) [RH = 13%]
Pressure (altimeter): 29.59 inches Hg (1002.0 mb)
Winds: from the WNW (300 degrees) at 17 MPH (15 knots; 7.7 m/s)
Visibility: 6 or more miles (10+ km)
Ceiling: ceiling and visibility are OK
Clouds: unknown
Weather: no significant weather observed at this time

METAR text: ORBI 241400Z 29017KT CAVOK 45/08 Q1002 NOSIG
Conditions at: ORBI (BAGHDAD INTL , IQ) observed 1400 UTC 24 June 2019
Temperature: 45.0°C (113°F)
Dewpoint: 8.0°C (46°F) [RH = 11%]
Pressure (altimeter): 29.59 inches Hg (1002.0 mb)
Winds: from the WNW (290 degrees) at 20 MPH (17 knots; 8.7 m/s)
Visibility: 6 or more miles (10+ km)
Ceiling: ceiling and visibility are OK
Clouds: unknown
Weather: no significant weather observed at this time

METAR text: ORBI 241300Z 30016KT 270V330 CAVOK 46/09 Q1003 NOSIG
Conditions at: ORBI (BAGHDAD INTL , IQ) observed 1300 UTC 24 June 2019
Temperature: 46.0°C (115°F)
Dewpoint: 9.0°C (48°F) [RH = 11%]
Pressure (altimeter): 29.62 inches Hg (1003.0 mb)
Winds: from the WNW (300 degrees) at 18 MPH (16 knots; 8.2 m/s)
Visibility: 6 or more miles (10+ km)
Ceiling: ceiling and visibility are OK
Clouds: unknown
Weather: no significant weather observed at this time

METAR text: ORBI 241200Z 31013KT 280V340 CAVOK 46/09 Q1003 NOSIG
Conditions at: ORBI (BAGHDAD INTL , IQ) observed 1200 UTC 24 June 2019
Temperature: 46.0°C (115°F)
Dewpoint: 9.0°C (48°F) [RH = 11%]
Pressure (altimeter): 29.62 inches Hg (1003.0 mb)
Winds: from the NW (310 degrees) at 15 MPH (13 knots; 6.7 m/s)
Visibility: 6 or more miles (10+ km)
Ceiling: ceiling and visibility are OK
Clouds: unknown
Weather: no significant weather observed at this time

METAR text: ORBI 241100Z 33011KT CAVOK 45/09 Q1003 NOSIG
Conditions at: ORBI (BAGHDAD INTL , IQ) observed 1100 UTC 24 June 2019
Temperature: 45.0°C (113°F)
Dewpoint: 9.0°C (48°F) [RH = 12%]
Pressure (altimeter): 29.62 inches Hg (1003.0 mb)
Winds: from the NNW (330 degrees) at 13 MPH (11 knots; 5.7 m/s)
Visibility: 6 or more miles (10+ km)
Ceiling: ceiling and visibility are OK
Clouds: unknown
Weather: no significant weather observed at this time

METAR text: ORBI 241000Z 30015G25KT 270V330 CAVOK 46/08 Q1003 NOSIG
Conditions at: ORBI (BAGHDAD INTL , IQ) observed 1000 UTC 24 June 2019
Temperature: 46.0°C (115°F)
Dewpoint: 8.0°C (46°F) [RH = 11%]
Pressure (altimeter): 29.62 inches Hg (1003.0 mb)
Winds: from the WNW (300 degrees) at 17 MPH (15 knots; 7.7 m/s)
gusting to 29 MPH (25 knots; 12.9 m/s)
Visibility: 6 or more miles (10+ km)
Ceiling: ceiling and visibility are OK
Clouds: unknown
Weather: no significant weather observed at this time

METAR text: ORBI 240900Z 34009KT 310V010 CAVOK 44/10 Q1004 NOSIG
Conditions at: ORBI (BAGHDAD INTL , IQ) observed 0900 UTC 24 June 2019
Temperature: 44.0°C (111°F)
Dewpoint: 10.0°C (50°F) [RH = 13%]
Pressure (altimeter): 29.65 inches Hg (1004.0 mb)
Winds: from the NNW (340 degrees) at 10 MPH (9 knots; 4.6 m/s)
Visibility: 6 or more miles (10+ km)
Ceiling: ceiling and visibility are OK
Clouds: unknown
Weather: no significant weather observed at this time

METAR text: ORBI 240800Z 32012KT 300V360 CAVOK 44/08 Q1004 NOSIG
Conditions at: ORBI (BAGHDAD INTL , IQ) observed 0800 UTC 24 June 2019
Temperature: 44.0°C (111°F)
Dewpoint: 8.0°C (46°F) [RH = 12%]
Pressure (altimeter): 29.65 inches Hg (1004.0 mb)
Winds: from the NW (320 degrees) at 14 MPH (12 knots; 6.2 m/s)
Visibility: 6 or more miles (10+ km)
Ceiling: ceiling and visibility are OK
Clouds: unknown
Weather: no significant weather observed at this time

METAR text: ORBI 240700Z 33009KT 300V010 CAVOK 42/13 Q1005 NOSIG
Conditions at: ORBI (BAGHDAD INTL , IQ) observed 0700 UTC 24 June 2019
Temperature: 42.0°C (108°F)
Dewpoint: 13.0°C (55°F) [RH = 18%]
Pressure (altimeter): 29.68 inches Hg (1005.0 mb)
Winds: from the NNW (330 degrees) at 10 MPH (9 knots; 4.6 m/s)
Visibility: 6 or more miles (10+ km)
Ceiling: ceiling and visibility are OK
Clouds: unknown
Weather: no significant weather observed at this time

METAR text: ORBI 240600Z 34011KT CAVOK 39/13 Q1005 NOSIG
Conditions at: ORBI (BAGHDAD INTL , IQ) observed 0600 UTC 24 June 2019
Temperature: 39.0°C (102°F)
Dewpoint: 13.0°C (55°F) [RH = 21%]
Pressure (altimeter): 29.68 inches Hg (1005.0 mb)
Winds: from the NNW (340 degrees) at 13 MPH (11 knots; 5.7 m/s)
Visibility: 6 or more miles (10+ km)
Ceiling: ceiling and visibility are OK
Clouds: unknown
Weather: no significant weather observed at this time

METAR text: ORBI 240500Z 36010KT CAVOK 38/12 Q1005 NOSIG
Conditions at: ORBI (BAGHDAD INTL , IQ) observed 0500 UTC 24 June 2019
Temperature: 38.0°C (100°F)
Dewpoint: 12.0°C (54°F) [RH = 21%]
Pressure (altimeter): 29.68 inches Hg (1005.0 mb)
Winds: from the N (360 degrees) at 12 MPH (10 knots; 5.1 m/s)
Visibility: 6 or more miles (10+ km)
Ceiling: ceiling and visibility are OK
Clouds: unknown
Weather: no significant weather observed at this time

METAR text: ORBI 240400Z 36011KT CAVOK 36/10 Q1004 NOSIG
Conditions at: ORBI (BAGHDAD INTL , IQ) observed 0400 UTC 24 June 2019
Temperature: 36.0°C (97°F)
Dewpoint: 10.0°C (50°F) [RH = 21%]
Pressure (altimeter): 29.65 inches Hg (1004.0 mb)
Winds: from the N (360 degrees) at 13 MPH (11 knots; 5.7 m/s)
Visibility: 6 or more miles (10+ km)
Ceiling: ceiling and visibility are OK
Clouds: unknown
Weather: no significant weather observed at this time

METAR text: ORBI 240300Z 35006KT CAVOK 31/11 Q1004 NOSIG
Conditions at: ORBI (BAGHDAD INTL , IQ) observed 0300 UTC 24 June 2019
Temperature: 31.0°C (88°F)
Dewpoint: 11.0°C (52°F) [RH = 29%]
Pressure (altimeter): 29.65 inches Hg (1004.0 mb)
Winds: from the N (350 degrees) at 7 MPH (6 knots; 3.1 m/s)
Visibility: 6 or more miles (10+ km)
Ceiling: ceiling and visibility are OK
Clouds: unknown
Weather: no significant weather observed at this time

METAR text: ORBI 240200Z 36006KT CAVOK 29/09 Q1004 NOSIG
Conditions at: ORBI (BAGHDAD INTL , IQ) observed 0200 UTC 24 June 2019
Temperature: 29.0°C (84°F)
Dewpoint: 9.0°C (48°F) [RH = 29%]
Pressure (altimeter): 29.65 inches Hg (1004.0 mb)
Winds: from the N (360 degrees) at 7 MPH (6 knots; 3.1 m/s)
Visibility: 6 or more miles (10+ km)
Ceiling: ceiling and visibility are OK
Clouds: unknown
Weather: no significant weather observed at this time

METAR text: ORBI 240100Z 34008KT CAVOK 30/10 Q1004 NOSIG
Conditions at: ORBI (BAGHDAD INTL , IQ) observed 0100 UTC 24 June 2019
Temperature: 30.0°C (86°F)
Dewpoint: 10.0°C (50°F) [RH = 29%]
Pressure (altimeter): 29.65 inches Hg (1004.0 mb)
Winds: from the NNW (340 degrees) at 9 MPH (8 knots; 4.1 m/s)
Visibility: 6 or more miles (10+ km)
Ceiling: ceiling and visibility are OK
Clouds: unknown
Weather: no significant weather observed at this time

METAR text: ORBI 240000Z 33007KT CAVOK 29/09 Q1003 NOSIG
Conditions at: ORBI (BAGHDAD INTL , IQ) observed 0000 UTC 24 June 2019
Temperature: 29.0°C (84°F)
Dewpoint: 9.0°C (48°F) [RH = 29%]
Pressure (altimeter): 29.62 inches Hg (1003.0 mb)
Winds: from the NNW (330 degrees) at 8 MPH (7 knots; 3.6 m/s)
Visibility: 6 or more miles (10+ km)
Ceiling: ceiling and visibility are OK
Clouds: unknown
Weather: no significant weather observed at this time

METAR text: ORBI 232300Z 32007KT CAVOK 29/08 Q1003 NOSIG
Conditions at: ORBI (BAGHDAD INTL , IQ) observed 2300 UTC 23 June 2019
Temperature: 29.0°C (84°F)
Dewpoint: 8.0°C (46°F) [RH = 27%]
Pressure (altimeter): 29.62 inches Hg (1003.0 mb)
Winds: from the NW (320 degrees) at 8 MPH (7 knots; 3.6 m/s)
Visibility: 6 or more miles (10+ km)
Ceiling: ceiling and visibility are OK
Clouds: unknown
Weather: no significant weather observed at this time

METAR text: ORBI 232200Z 30009KT CAVOK 34/07 Q1003 NOSIG
Conditions at: ORBI (BAGHDAD INTL , IQ) observed 2200 UTC 23 June 2019
Temperature: 34.0°C (93°F)
Dewpoint: 7.0°C (45°F) [RH = 19%]
Pressure (altimeter): 29.62 inches Hg (1003.0 mb)
Winds: from the WNW (300 degrees) at 10 MPH (9 knots; 4.6 m/s)
Visibility: 6 or more miles (10+ km)
Ceiling: ceiling and visibility are OK
Clouds: unknown
Weather: no significant weather observed at this time

METAR text: ORBI 232100Z 29007KT CAVOK 32/06 Q1004 NOSIG
Conditions at: ORBI (BAGHDAD INTL , IQ) observed 2100 UTC 23 June 2019
Temperature: 32.0°C (90°F)
Dewpoint: 6.0°C (43°F) [RH = 20%]
Pressure (altimeter): 29.65 inches Hg (1004.0 mb)
Winds: from the WNW (290 degrees) at 8 MPH (7 knots; 3.6 m/s)
Visibility: 6 or more miles (10+ km)
Ceiling: ceiling and visibility are OK
Clouds: unknown
Weather: no significant weather observed at this time

METAR text: ORBI 232000Z 28005KT CAVOK 32/07 Q1004 NOSIG
Conditions at: ORBI (BAGHDAD INTL , IQ) observed 2000 UTC 23 June 2019
Temperature: 32.0°C (90°F)
Dewpoint: 7.0°C (45°F) [RH = 21%]
Pressure (altimeter): 29.65 inches Hg (1004.0 mb)
Winds: from the W (280 degrees) at 6 MPH (5 knots; 2.6 m/s)
Visibility: 6 or more miles (10+ km)
Ceiling: ceiling and visibility are OK
Clouds: unknown
Weather: no significant weather observed at this time

METAR text: ORBI 231900Z VRB02KT CAVOK 32/08 Q1004 NOSIG
Conditions at: ORBI (BAGHDAD INTL , IQ) observed 1900 UTC 23 June 2019
Temperature: 32.0°C (90°F)
Dewpoint: 8.0°C (46°F) [RH = 23%]
Pressure (altimeter): 29.65 inches Hg (1004.0 mb)
Winds: variable direction winds at 2 MPH (2 knots; 1.0 m/s)
Visibility: 6 or more miles (10+ km)
Ceiling: ceiling and visibility are OK
Clouds: unknown
Weather: no significant weather observed at this time

METAR text: ORBI 231800Z 27003KT 230V300 CAVOK 35/08 Q1004 NOSIG
Conditions at: ORBI (BAGHDAD INTL , IQ) observed 1800 UTC 23 June 2019
Temperature: 35.0°C (95°F)
Dewpoint: 8.0°C (46°F) [RH = 19%]
Pressure (altimeter): 29.65 inches Hg (1004.0 mb)
Winds: from the W (270 degrees) at 3 MPH (3 knots; 1.5 m/s)
Visibility: 6 or more miles (10+ km)
Ceiling: ceiling and visibility are OK
Clouds: unknown
Weather: no significant weather observed at this time

METAR text: ORBI 231700Z 27007KT CAVOK 39/07 Q1003 NOSIG
Conditions at: ORBI (BAGHDAD INTL , IQ) observed 1700 UTC 23 June 2019
Temperature: 39.0°C (102°F)
Dewpoint: 7.0°C (45°F) [RH = 14%]
Pressure (altimeter): 29.62 inches Hg (1003.0 mb)
Winds: from the W (270 degrees) at 8 MPH (7 knots; 3.6 m/s)
Visibility: 6 or more miles (10+ km)
Ceiling: ceiling and visibility are OK
Clouds: unknown
Weather: no significant weather observed at this time

METAR text: ORBI 231600Z 27007KT CAVOK 41/07 Q1003 NOSIG
Conditions at: ORBI (BAGHDAD INTL , IQ) observed 1600 UTC 23 June 2019
Temperature: 41.0°C (106°F)
Dewpoint: 7.0°C (45°F) [RH = 13%]
Pressure (altimeter): 29.62 inches Hg (1003.0 mb)
Winds: from the W (270 degrees) at 8 MPH (7 knots; 3.6 m/s)
Visibility: 6 or more miles (10+ km)
Ceiling: ceiling and visibility are OK
Clouds: unknown
Weather: no significant weather observed at this time

METAR text: ORBI 231500Z 27012KT CAVOK 42/06 Q1003 NOSIG
Conditions at: ORBI (BAGHDAD INTL , IQ) observed 1500 UTC 23 June 2019
Temperature: 42.0°C (108°F)
Dewpoint: 6.0°C (43°F) [RH = 11%]
Pressure (altimeter): 29.62 inches Hg (1003.0 mb)
Winds: from the W (270 degrees) at 14 MPH (12 knots; 6.2 m/s)
Visibility: 6 or more miles (10+ km)
Ceiling: ceiling and visibility are OK
Clouds: unknown
Weather: no significant weather observed at this time

METAR text: ORBI 231400Z 30012KT 270V330 CAVOK 43/06 Q1003 NOSIG
Conditions at: ORBI (BAGHDAD INTL , IQ) observed 1400 UTC 23 June 2019
Temperature: 43.0°C (109°F)
Dewpoint: 6.0°C (43°F) [RH = 11%]
Pressure (altimeter): 29.62 inches Hg (1003.0 mb)
Winds: from the WNW (300 degrees) at 14 MPH (12 knots; 6.2 m/s)
Visibility: 6 or more miles (10+ km)
Ceiling: ceiling and visibility are OK
Clouds: unknown
Weather: no significant weather observed at this time

METAR text: ORBI 231300Z 28012KT 250V320 CAVOK 44/07 Q1004 NOSIG
Conditions at: ORBI (BAGHDAD INTL , IQ) observed 1300 UTC 23 June 2019
Temperature: 44.0°C (111°F)
Dewpoint: 7.0°C (45°F) [RH = 11%]
Pressure (altimeter): 29.65 inches Hg (1004.0 mb)
Winds: from the W (280 degrees) at 14 MPH (12 knots; 6.2 m/s)
Visibility: 6 or more miles (10+ km)
Ceiling: ceiling and visibility are OK
Clouds: unknown
Weather: no significant weather observed at this time

METAR text: ORBI 231200Z 27015KT CAVOK 43/08 Q1004 NOSIG
Conditions at: ORBI (BAGHDAD INTL , IQ) observed 1200 UTC 23 June 2019
Temperature: 43.0°C (109°F)
Dewpoint: 8.0°C (46°F) [RH = 12%]
Pressure (altimeter): 29.65 inches Hg (1004.0 mb)
Winds: from the W (270 degrees) at 17 MPH (15 knots; 7.7 m/s)
Visibility: 6 or more miles (10+ km)
Ceiling: ceiling and visibility are OK
Clouds: unknown
Weather: no significant weather observed at this time

METAR text: ORBI 231100Z 27014KT 230V310 CAVOK 44/09 Q1004 NOSIG
Conditions at: ORBI (BAGHDAD INTL , IQ) observed 1100 UTC 23 June 2019
Temperature: 44.0°C (111°F)
Dewpoint: 9.0°C (48°F) [RH = 13%]
Pressure (altimeter): 29.65 inches Hg (1004.0 mb)
Winds: from the W (270 degrees) at 16 MPH (14 knots; 7.2 m/s)
Visibility: 6 or more miles (10+ km)
Ceiling: ceiling and visibility are OK
Clouds: unknown
Weather: no significant weather observed at this time

METAR text: ORBI 231000Z 29011KT 240V330 CAVOK 44/10 Q1004 NOSIG
Conditions at: ORBI (BAGHDAD INTL , IQ) observed 1000 UTC 23 June 2019
Temperature: 44.0°C (111°F)
Dewpoint: 10.0°C (50°F) [RH = 13%]
Pressure (altimeter): 29.65 inches Hg (1004.0 mb)
Winds: from the WNW (290 degrees) at 13 MPH (11 knots; 5.7 m/s)
Visibility: 6 or more miles (10+ km)
Ceiling: ceiling and visibility are OK
Clouds: unknown
Weather: no significant weather observed at this time

METAR text: ORBI 230900Z 36007KT 320V070 CAVOK 42/10 Q1004 NOSIG
Conditions at: ORBI (BAGHDAD INTL , IQ) observed 0900 UTC 23 June 2019
Temperature: 42.0°C (108°F)
Dewpoint: 10.0°C (50°F) [RH = 15%]
Pressure (altimeter): 29.65 inches Hg (1004.0 mb)
Winds: from the N (360 degrees) at 8 MPH (7 knots; 3.6 m/s)
Visibility: 6 or more miles (10+ km)
Ceiling: ceiling and visibility are OK
Clouds: unknown
Weather: no significant weather observed at this time

METAR text: ORBI 230800Z 34013KT CAVOK 41/12 Q1005 NOSIG
Conditions at: ORBI (BAGHDAD INTL , IQ) observed 0800 UTC 23 June 2019
Temperature: 41.0°C (106°F)
Dewpoint: 12.0°C (54°F) [RH = 18%]
Pressure (altimeter): 29.68 inches Hg (1005.0 mb)
Winds: from the NNW (340 degrees) at 15 MPH (13 knots; 6.7 m/s)
Visibility: 6 or more miles (10+ km)
Ceiling: ceiling and visibility are OK
Clouds: unknown
Weather: no significant weather observed at this time

METAR text: ORBI 230700Z 35009KT CAVOK 39/13 Q1005 NOSIG
Conditions at: ORBI (BAGHDAD INTL , IQ) observed 0700 UTC 23 June 2019
Temperature: 39.0°C (102°F)
Dewpoint: 13.0°C (55°F) [RH = 21%]
Pressure (altimeter): 29.68 inches Hg (1005.0 mb)
Winds: from the N (350 degrees) at 10 MPH (9 knots; 4.6 m/s)
Visibility: 6 or more miles (10+ km)
Ceiling: ceiling and visibility are OK
Clouds: unknown
Weather: no significant weather observed at this time

Forecast for: ORBI (BAGHDAD INTL , IQ)
Text: TAF ORBI 241700Z 2418/2518 32008KT CAVOK
Forecast period: 1800 UTC 24 June 2019 to 1800 UTC 25 June 2019
Forecast type: FROM: standard forecast or significant change
Winds: from the NW (320 degrees) at 9 MPH (8 knots; 4.1 m/s)
Visibility: 6 or more miles 10+ km)
Ceiling: unknown
Clouds: missing
Weather: NSW  (no significant weather)